Time;durP1;ratioP1;P1;durP2;ratioP2;P2;SDS_P1;SDS_P2;PMS_P1;PMS_P2;Temp;Humidity;BMP_temperature;BMP_pressure;BME280_temperature;BME280_humidity;BME280_pressure;Samples;Min_cycle;Max_cycle;Signal;HPM_P1;HPM_P2
2021/09/18 00:00:34;;;;;;;4.63;4.07;;;;;;;15.96;nan;101201.81;5060863;28;20219;-66
2021/09/18 00:02:59;;;;;;;4.70;4.30;;;;;;;16.12;nan;101207.00;5060939;28;20235;-66
2021/09/18 00:05:25;;;;;;;5.20;4.70;;;;;;;16.00;nan;101213.19;5060742;28;20271;-66
2021/09/18 00:07:50;;;;;;;5.67;4.90;;;;;;;16.25;nan;101198.16;5060752;28;20182;-65
2021/09/18 00:10:15;;;;;;;6.60;4.23;;;;;;;16.07;nan;101204.38;5061100;28;20554;-66
2021/09/18 00:12:41;;;;;;;6.60;4.63;;;;;;;16.17;nan;101197.34;5060810;28;20205;-66
2021/09/18 00:15:07;;;;;;;4.80;4.40;;;;;;;16.08;nan;101200.88;5060447;28;20184;-66
2021/09/18 00:17:32;;;;;;;5.43;4.80;;;;;;;16.03;nan;101201.78;5060424;28;20209;-66
2021/09/18 00:19:58;;;;;;;5.10;4.07;;;;;;;15.98;nan;101204.47;5060591;28;20446;-66
2021/09/18 00:22:24;;;;;;;6.40;5.10;;;;;;;15.99;nan;101211.44;5060373;28;20184;-65
2021/09/18 00:24:49;;;;;;;6.60;4.70;;;;;;;16.03;nan;101210.53;5060721;28;20416;-66
2021/09/18 00:27:14;;;;;;;4.70;4.30;;;;;;;15.94;nan;101214.09;5060469;28;20221;-66
2021/09/18 00:29:40;;;;;;;5.27;4.77;;;;;;;16.05;nan;101221.06;5060479;28;20195;-66
2021/09/18 00:32:05;;;;;;;5.57;5.07;;;;;;;16.20;nan;101209.59;5060791;28;20197;-65
2021/09/18 00:34:30;;;;;;;6.07;5.47;;;;;;;15.91;nan;101206.25;5060195;28;20549;-65
2021/09/18 00:36:56;;;;;;;6.07;4.83;;;;;;;16.11;nan;101207.88;5060257;28;20170;-66
2021/09/18 00:39:21;;;;;;;6.70;4.90;;;;;;;16.15;nan;101214.88;5060751;28;20173;-66
2021/09/18 00:41:47;;;;;;;6.53;5.83;;;;;;;16.21;nan;101212.22;5060167;28;20551;-65
2021/09/18 00:44:17;;;;;;;6.10;5.50;;;;;;;16.14;nan;101215.75;5059885;28;20196;-66
2021/09/18 00:46:47;;;;;;;7.00;6.30;;;;;;;15.74;nan;101222.06;5060536;28;20174;-65
2021/09/18 00:49:12;;;;;;;6.80;6.10;;;;;;;15.82;nan;101229.94;5060250;28;20423;-65
2021/09/18 00:51:39;;;;;;;7.23;5.90;;;;;;;16.04;nan;101224.59;5059978;28;20434;-66
2021/09/18 00:54:05;;;;;;;6.87;6.20;;;;;;;16.24;nan;101213.94;5059637;28;20177;-65
2021/09/18 00:56:30;;;;;;;6.60;6.00;;;;;;;15.79;nan;101225.53;5059155;28;20472;-66
2021/09/18 00:58:55;;;;;;;7.33;6.60;;;;;;;15.37;nan;101229.16;5059833;28;20474;-66
2021/09/18 01:01:21;;;;;;;8.40;6.63;;;;;;;15.70;nan;101219.44;5044506;28;20189;-66
2021/09/18 01:03:46;;;;;;;7.17;6.57;;;;;;;15.86;nan;101215.91;5039640;28;20170;-66
2021/09/18 01:06:13;;;;;;;8.53;6.10;;;;;;;15.96;nan;101222.84;5039631;28;20426;-65
2021/09/18 01:08:40;;;;;;;6.70;6.10;;;;;;;15.87;nan;101211.50;5043911;28;20194;-65
2021/09/18 01:11:06;;;;;;;7.83;6.53;;;;;;;15.98;nan;101221.09;5044895;28;20468;-67
2021/09/18 01:13:33;;;;;;;7.43;6.63;;;;;;;15.97;nan;101211.47;5042790;28;20429;-66
2021/09/18 01:15:58;;;;;;;7.50;6.30;;;;;;;16.04;nan;101225.44;5042109;28;20204;-66
2021/09/18 01:18:24;;;;;;;6.10;5.60;;;;;;;15.86;nan;101221.16;5040186;28;20388;-65
2021/09/18 01:20:49;;;;;;;6.90;6.10;;;;;;;15.72;nan;101221.19;5039439;28;20170;-65
2021/09/18 01:23:22;;;;;;;6.60;6.00;;;;;;;15.65;nan;101222.97;5039717;28;20208;-66
2021/09/18 01:25:48;;;;;;;6.70;5.97;;;;;;;15.61;nan;101222.97;5039451;28;20551;-66
2021/09/18 01:28:14;;;;;;;8.93;6.33;;;;;;;15.69;nan;101225.59;5038566;28;20388;-66
2021/09/18 01:30:40;;;;;;;6.70;5.90;;;;;;;15.65;nan;101215.09;5039272;28;20448;-66
2021/09/18 01:33:06;;;;;;;6.20;5.60;;;;;;;15.59;nan;101222.13;5039258;28;20811;-66
2021/09/18 01:35:32;;;;;;;6.40;5.80;;;;;;;15.46;nan;101232.63;5039377;28;20166;-66
2021/09/18 01:37:58;;;;;;;6.40;5.70;;;;;;;15.83;nan;101224.69;5039074;28;20791;-66
2021/09/18 01:40:26;;;;;;;7.20;6.50;;;;;;;15.57;nan;101231.75;5038394;28;20179;-66
2021/09/18 01:42:52;;;;;;;6.60;5.93;;;;;;;15.60;nan;101235.25;5039397;28;20475;-66
2021/09/18 01:45:17;;;;;;;7.73;6.10;;;;;;;16.04;nan;101228.06;5038931;28;20503;-66
2021/09/18 01:47:45;;;;;;;6.70;6.10;;;;;;;16.15;nan;101226.25;5038949;28;20206;-66
2021/09/18 01:50:33;;;;;;;7.07;6.37;;;;;;;15.69;nan;101229.06;5038299;28;20177;-65
2021/09/18 01:53:03;;;;;;;6.67;5.97;;;;;;;15.62;nan;101224.72;5038652;28;20832;-65
2021/09/18 01:55:28;;;;;;;8.80;7.63;;;;;;;15.71;nan;101229.06;5049799;28;20565;-64
2021/09/18 01:57:55;;;;;;;8.00;7.00;;;;;;;15.60;nan;101223.84;5038606;28;20845;-64
2021/09/18 02:00:21;;;;;;;7.70;7.00;;;;;;;15.57;nan;101231.75;5038550;28;20184;-64
2021/09/18 02:02:47;;;;;;;7.87;6.70;;;;;;;15.67;nan;101230.84;5039423;28;20663;-65
2021/09/18 02:05:13;;;;;;;7.80;7.10;;;;;;;15.59;nan;101232.63;5038495;28;20189;-65
2021/09/18 02:07:39;;;;;;;7.70;6.90;;;;;;;15.54;nan;101231.75;5038728;28;20178;-65
2021/09/18 02:10:06;;;;;;;7.97;7.07;;;;;;;15.48;nan;101238.78;5039241;28;20421;-65
2021/09/18 02:12:32;;;;;;;8.00;7.07;;;;;;;15.70;nan;101236.09;5037669;28;20202;-65
2021/09/18 02:14:57;;;;;;;11.30;8.10;;;;;;;15.51;nan;101237.03;5038201;28;20421;-66
2021/09/18 02:17:22;;;;;;;9.13;7.77;;;;;;;15.63;nan;101237.00;5038761;28;20550;-65
2021/09/18 02:19:47;;;;;;;9.13;8.07;;;;;;;15.35;nan;101237.06;5038507;28;20170;-65
2021/09/18 02:22:13;;;;;;;9.33;8.33;;;;;;;15.44;nan;101242.28;5038375;28;20185;-65
2021/09/18 02:24:38;;;;;;;11.33;8.93;;;;;;;15.77;nan;101236.94;5038799;28;20548;-65
2021/09/18 02:27:03;;;;;;;10.00;9.00;;;;;;;15.64;nan;101233.47;5038366;28;20248;-64
2021/09/18 02:29:29;;;;;;;10.33;9.20;;;;;;;15.52;nan;101230.88;5038207;28;20170;-65
2021/09/18 02:31:54;;;;;;;11.20;9.30;;;;;;;15.44;nan;101234.41;5038688;28;20472;-65
2021/09/18 02:34:19;;;;;;;10.27;9.27;;;;;;;15.54;nan;101234.41;5038097;28;20188;-65
2021/09/18 02:36:44;;;;;;;11.87;9.33;;;;;;;15.51;nan;101229.16;5038379;28;20174;-65
2021/09/18 02:39:10;;;;;;;47.67;32.20;;;;;;;15.63;nan;101226.47;5038434;28;20174;-66
2021/09/18 02:41:35;;;;;;;9.83;8.83;;;;;;;15.68;nan;101226.44;5038262;28;20174;-65
2021/09/18 02:44:01;;;;;;;40.63;27.87;;;;;;;15.58;nan;101223.00;5037990;28;20423;-67
2021/09/18 02:46:26;;;;;;;23.43;18.57;;;;;;;15.65;nan;101227.34;5038841;28;20220;-67
2021/09/18 02:48:52;;;;;;;19.10;13.73;;;;;;;15.23;nan;101229.22;5038075;28;20178;-66
2021/09/18 02:51:18;;;;;;;12.40;10.10;;;;;;;15.23;nan;101223.94;5038045;28;20232;-65
2021/09/18 02:53:43;;;;;;;11.03;9.47;;;;;;;15.24;nan;101226.56;5038449;28;20261;-67
2021/09/18 02:56:08;;;;;;;16.53;12.47;;;;;;;15.24;nan;101228.34;5038320;28;20469;-66
2021/09/18 02:58:34;;;;;;;14.10;11.40;;;;;;;15.22;nan;101224.81;5038241;28;20226;-66
2021/09/18 03:00:59;;;;;;;11.83;9.93;;;;;;;15.44;nan;101228.31;5038494;28;20163;-66
2021/09/18 03:03:24;;;;;;;13.10;10.70;;;;;;;15.40;nan;101229.19;5037987;28;20182;-66
2021/09/18 03:05:50;;;;;;;12.20;10.77;;;;;;;15.38;nan;101228.31;5038269;28;20174;-66
2021/09/18 03:08:15;;;;;;;14.13;11.27;;;;;;;15.22;nan;101222.19;5038526;28;20170;-67
2021/09/18 03:10:40;;;;;;;15.03;11.77;;;;;;;15.20;nan;101221.34;5038150;28;20174;-67
2021/09/18 03:13:06;;;;;;;16.00;10.73;;;;;;;15.01;nan;101228.38;5038005;28;20216;-65
2021/09/18 03:15:31;;;;;;;11.77;10.23;;;;;;;15.06;nan;101221.34;5038085;28;20178;-67
2021/09/18 03:17:57;;;;;;;12.10;10.30;;;;;;;15.21;nan;101234.47;5037920;28;20288;-66
2021/09/18 03:20:22;;;;;;;14.40;11.03;;;;;;;15.40;nan;101232.69;5038081;28;20463;-65
2021/09/18 03:22:48;;;;;;;14.00;10.50;;;;;;;15.46;nan;101237.91;5038535;28;20407;-67
2021/09/18 03:25:13;;;;;;;11.90;10.30;;;;;;;15.70;nan;101228.19;5037729;28;20594;-65
2021/09/18 03:27:38;;;;;;;13.93;10.60;;;;;;;15.64;nan;101230.84;5037932;28;20174;-66
2021/09/18 03:30:05;;;;;;;11.93;10.37;;;;;;;15.51;nan;101234.41;5038287;28;20209;-65
2021/09/18 03:32:31;;;;;;;12.73;11.17;;;;;;;15.66;nan;101236.97;5036877;28;20309;-66
2021/09/18 03:34:56;;;;;;;14.63;12.37;;;;;;;15.57;nan;101244.88;5037608;28;20503;-66
2021/09/18 03:37:22;;;;;;;13.53;9.67;;;;;;;15.65;nan;101245.72;5038032;28;20205;-65
2021/09/18 03:39:47;;;;;;;12.87;10.10;;;;;;;15.60;nan;101239.59;5037820;28;20501;-66
2021/09/18 03:42:12;;;;;;;11.53;9.53;;;;;;;15.47;nan;101244.03;5037639;28;20197;-65
2021/09/18 03:44:37;;;;;;;11.33;9.80;;;;;;;15.52;nan;101244.03;5037753;28;20445;-66
2021/09/18 03:47:03;;;;;;;13.10;11.50;;;;;;;15.62;nan;101245.75;5037515;28;20186;-66
2021/09/18 03:49:28;;;;;;;12.13;10.83;;;;;;;15.46;nan;101244.91;5037595;28;20181;-66
2021/09/18 03:51:54;;;;;;;11.50;9.90;;;;;;;15.48;nan;101254.53;5040061;28;20190;-67
2021/09/18 03:54:19;;;;;;;11.90;9.97;;;;;;;15.25;nan;101251.06;5045449;28;20490;-66
2021/09/18 03:56:44;;;;;;;11.30;10.10;;;;;;;15.60;nan;101244.88;5045386;28;20630;-66
2021/09/18 03:59:10;;;;;;;12.10;10.50;;;;;;;15.73;nan;101241.31;5046224;28;20503;-65
2021/09/18 04:01:35;;;;;;;12.27;9.60;;;;;;;15.66;nan;101244.88;5043529;28;20174;-67
2021/09/18 04:04:01;;;;;;;11.90;10.20;;;;;;;15.73;nan;101248.34;5041333;28;20472;-65
2021/09/18 04:06:26;;;;;;;11.60;9.80;;;;;;;15.68;nan;101240.47;5041490;28;20178;-66
2021/09/18 04:08:52;;;;;;;11.87;9.60;;;;;;;15.63;nan;101248.38;5040996;28;20253;-65
2021/09/18 04:11:17;;;;;;;11.17;10.07;;;;;;;15.72;nan;101239.59;5041212;28;20552;-65
2021/09/18 04:13:42;;;;;;;9.27;8.37;;;;;;;15.60;nan;101244.88;5040623;28;20547;-65
2021/09/18 04:16:08;;;;;;;9.70;8.70;;;;;;;15.57;nan;101242.25;5040817;28;20205;-65
2021/09/18 04:18:33;;;;;;;11.50;10.30;;;;;;;15.72;nan;101234.34;5041040;28;20178;-65
2021/09/18 04:20:58;;;;;;;10.33;9.23;;;;;;;15.41;nan;101247.56;5040695;28;20193;-65
2021/09/18 04:23:23;;;;;;;12.10;10.40;;;;;;;15.55;nan;101252.78;5040538;28;20170;-65
2021/09/18 04:25:49;;;;;;;11.80;10.10;;;;;;;15.68;nan;101258.84;5040946;28;20229;-66
2021/09/18 04:28:15;;;;;;;11.57;9.93;;;;;;;15.57;nan;101253.63;5040473;28;20265;-66
2021/09/18 04:30:41;;;;;;;11.27;10.10;;;;;;;15.58;nan;101257.16;5040283;28;20265;-65
2021/09/18 04:33:06;;;;;;;11.40;9.40;;;;;;;15.69;nan;101255.34;5040728;28;20512;-65
2021/09/18 04:35:31;;;;;;;12.23;10.30;;;;;;;15.96;nan;101258.81;5040226;28;20174;-64
2021/09/18 04:37:56;;;;;;;12.10;9.73;;;;;;;16.09;nan;101257.88;5040448;28;20224;-65
2021/09/18 04:40:22;;;;;;;11.17;9.23;;;;;;;15.78;nan;101255.34;5040709;28;20179;-64
2021/09/18 04:42:47;;;;;;;15.07;10.20;;;;;;;15.83;nan;101253.59;5040278;28;20208;-65
2021/09/18 04:45:12;;;;;;;13.40;9.90;;;;;;;15.74;nan;101260.63;5040005;28;20178;-65
2021/09/18 04:47:38;;;;;;;12.03;10.73;;;;;;;15.83;nan;101263.25;5040313;28;20170;-66
2021/09/18 04:50:03;;;;;;;15.27;9.70;;;;;;;15.60;nan;101268.53;5039998;28;20174;-66
2021/09/18 04:52:29;;;;;;;10.80;9.70;;;;;;;15.85;nan;101263.25;5039910;28;20248;-64
2021/09/18 04:54:55;;;;;;;13.50;10.60;;;;;;;16.04;nan;101271.94;5041690;28;20186;-65
2021/09/18 04:57:20;;;;;;;13.63;11.33;;;;;;;15.81;nan;101280.78;5040177;28;20178;-66
2021/09/18 04:59:46;;;;;;;9.90;8.90;;;;;;;15.87;nan;101274.59;5038903;28;20443;-66
2021/09/18 05:02:11;;;;;;;11.93;10.03;;;;;;;15.97;nan;101281.59;5039256;28;20166;-65
2021/09/18 05:04:36;;;;;;;11.17;9.80;;;;;;;15.94;nan;101279.84;5039381;28;20178;-65
2021/09/18 05:07:02;;;;;;;10.53;9.43;;;;;;;15.86;nan;101286.00;5039854;28;20419;-65
2021/09/18 05:09:27;;;;;;;11.83;10.40;;;;;;;15.91;nan;101292.13;5040076;28;20236;-66
2021/09/18 05:11:52;;;;;;;10.60;9.50;;;;;;;15.91;nan;101295.66;5039479;28;20300;-65
2021/09/18 05:14:18;;;;;;;11.03;9.50;;;;;;;15.90;nan;101290.38;5039409;28;20178;-65
2021/09/18 05:16:43;;;;;;;10.90;9.77;;;;;;;16.00;nan;101292.09;5039339;28;20277;-65
2021/09/18 05:19:08;;;;;;;11.30;8.97;;;;;;;15.60;nan;101297.44;5039531;28;20191;-65
2021/09/18 05:21:34;;;;;;;12.53;10.13;;;;;;;15.63;nan;101300.06;5039471;28;20177;-65
2021/09/18 05:23:59;;;;;;;10.67;9.50;;;;;;;16.19;nan;101294.66;5039575;28;20464;-65
2021/09/18 05:26:24;;;;;;;11.07;9.50;;;;;;;16.01;nan;101309.63;5039383;28;20244;-65
2021/09/18 05:28:51;;;;;;;10.70;9.37;;;;;;;15.75;nan;101307.94;5039268;28;20536;-65
2021/09/18 05:31:17;;;;;;;9.83;8.80;;;;;;;15.78;nan;101302.66;5039523;28;20221;-66
2021/09/18 05:33:42;;;;;;;10.73;9.60;;;;;;;15.85;nan;101305.31;5039122;28;20460;-65
2021/09/18 05:36:07;;;;;;;11.00;9.90;;;;;;;15.90;nan;101303.50;5039226;28;20174;-66
2021/09/18 05:38:33;;;;;;;10.90;9.60;;;;;;;16.12;nan;101302.56;5039658;28;20224;-66
2021/09/18 05:40:58;;;;;;;10.70;9.70;;;;;;;16.04;nan;101306.13;5039061;28;20169;-67
2021/09/18 05:43:23;;;;;;;10.27;8.93;;;;;;;16.23;nan;101304.28;5038946;28;20178;-66
2021/09/18 05:45:49;;;;;;;9.50;8.50;;;;;;;16.31;nan;101305.97;5039095;28;20431;-66
2021/09/18 05:48:14;;;;;;;9.67;8.67;;;;;;;16.62;nan;101310.19;5039122;28;20173;-66
2021/09/18 05:50:39;;;;;;;10.13;9.13;;;;;;;16.37;nan;101307.69;5038969;28;20178;-65
2021/09/18 05:53:05;;;;;;;11.60;10.40;;;;;;;16.67;nan;101305.78;5039264;28;20189;-67
2021/09/18 05:55:30;;;;;;;9.10;8.20;;;;;;;16.30;nan;101311.25;5038560;28;20194;-66
2021/09/18 05:57:55;;;;;;;9.77;8.73;;;;;;;16.95;nan;101300.34;5040270;28;20518;-65
2021/09/18 06:00:21;;;;;;;9.33;8.43;;;;;;;16.67;nan;101309.28;5044769;28;20197;-65
2021/09/18 06:02:47;;;;;;;9.17;8.30;;;;;;;16.88;nan;101303.88;5038798;28;20198;-65
2021/09/18 06:05:12;;;;;;;9.07;8.20;;;;;;;16.72;nan;101322.41;5038764;28;20166;-65
2021/09/18 06:07:38;;;;;;;8.10;7.30;;;;;;;17.30;nan;101317.63;5039145;28;20413;-66
2021/09/18 06:10:04;;;;;;;8.20;7.50;;;;;;;17.39;nan;101312.25;5038514;28;20200;-65
2021/09/18 06:12:30;;;;;;;7.90;7.10;;;;;;;17.39;nan;101324.56;5038735;28;20198;-66
2021/09/18 06:14:55;;;;;;;6.90;6.30;;;;;;;17.09;nan;101322.19;5038854;28;20412;-67
2021/09/18 06:17:20;;;;;;;7.90;7.03;;;;;;;17.43;nan;101321.03;5038495;28;20178;-66
2021/09/18 06:19:46;;;;;;;7.40;6.80;;;;;;;17.84;nan;101324.97;5038543;28;20232;-66
2021/09/18 06:22:12;;;;;;;9.10;8.20;;;;;;;17.65;nan;101321.66;5038970;28;20177;-66
2021/09/18 06:24:39;;;;;;;7.50;6.80;;;;;;;17.27;nan;101328.19;5037445;28;20174;-67
2021/09/18 06:27:04;;;;;;;10.50;7.67;;;;;;;17.45;nan;101329.78;5039796;28;20417;-65
2021/09/18 06:29:30;;;;;;;8.23;7.43;;;;;;;17.69;nan;101328.66;5038970;28;20428;-66
2021/09/18 06:31:55;;;;;;;11.03;8.07;;;;;;;17.65;nan;101330.44;5038482;28;20198;-66
2021/09/18 06:34:20;;;;;;;9.00;8.10;;;;;;;17.82;nan;101326.78;5038229;28;20188;-66
2021/09/18 06:36:46;;;;;;;9.47;7.80;;;;;;;17.92;nan;101333.72;5038861;28;20516;-67
2021/09/18 06:39:11;;;;;;;9.77;8.87;;;;;;;18.12;nan;101327.34;5043472;28;20205;-66
2021/09/18 06:41:36;;;;;;;6.50;5.90;;;;;;;17.66;nan;101336.59;5043908;28;20213;-68
2021/09/18 06:44:02;;;;;;;6.30;5.70;;;;;;;17.57;nan;101339.34;5042923;28;20532;-66
2021/09/18 06:46:27;;;;;;;6.43;5.93;;;;;;;17.56;nan;101341.06;5058481;28;20181;-66
2021/09/18 06:48:52;;;;;;;5.93;5.43;;;;;;;17.87;nan;101338.13;5058081;28;20244;-68
2021/09/18 06:51:17;;;;;;;6.20;5.60;;;;;;;17.63;nan;101344.53;5058515;28;20212;-68
2021/09/18 06:53:43;;;;;;;6.43;5.83;;;;;;;16.69;nan;101351.41;5057850;28;20173;-66
2021/09/18 06:56:08;;;;;;;8.10;7.37;;;;;;;17.40;nan;101345.66;5057825;28;20596;-67
2021/09/18 06:58:33;;;;;;;6.00;5.50;;;;;;;17.29;nan;101344.84;5058023;28;20271;-66
2021/09/18 07:00:59;;;;;;;5.80;5.30;;;;;;;18.06;nan;101346.72;5057866;28;20226;-68
2021/09/18 07:03:25;;;;;;;5.30;4.90;;;;;;;16.60;nan;101351.44;5058182;28;20581;-67
2021/09/18 07:05:50;;;;;;;6.47;5.70;;;;;;;18.24;nan;101347.41;5048110;28;20182;-66
2021/09/18 07:08:15;;;;;;;8.40;5.60;;;;;;;17.45;nan;101358.75;5046849;28;20516;-67
2021/09/18 07:10:41;;;;;;;5.87;5.27;;;;;;;17.07;nan;101363.47;5058140;28;20178;-66
2021/09/18 07:13:06;;;;;;;6.30;5.80;;;;;;;17.78;nan;101352.31;5060883;28;20205;-67
2021/09/18 07:15:32;;;;;;;5.60;5.00;;;;;;;18.08;nan;101358.16;5057940;28;20178;-68
2021/09/18 07:17:57;;;;;;;6.40;5.40;;;;;;;19.25;nan;101352.16;5058787;28;20173;-68
2021/09/18 07:20:22;;;;;;;5.60;5.10;;;;;;;19.16;nan;101359.34;5057985;28;20204;-68
2021/09/18 07:22:49;;;;;;;5.00;4.60;;;;;;;18.96;nan;101358.78;5058243;28;20249;-68
2021/09/18 07:25:14;;;;;;;6.17;5.60;;;;;;;19.50;nan;101358.75;5058321;28;20177;-67
2021/09/18 07:27:40;;;;;;;5.63;5.13;;;;;;;19.71;nan;101364.56;5061444;28;20470;-67
2021/09/18 07:30:06;;;;;;;5.53;5.03;;;;;;;19.38;nan;101366.91;5061590;28;20252;-66
2021/09/18 07:32:31;;;;;;;5.10;4.60;;;;;;;18.45;nan;101370.03;5061208;28;20244;-66
2021/09/18 07:34:57;;;;;;;5.17;4.67;;;;;;;18.33;nan;101371.94;5060235;28;20809;-66
2021/09/18 07:37:22;;;;;;;5.43;4.93;;;;;;;18.54;nan;101363.72;5063036;28;20216;-67
2021/09/18 07:39:48;;;;;;;5.47;5.07;;;;;;;19.11;nan;101369.09;5077133;28;20417;-67
2021/09/18 07:42:13;;;;;;;5.40;4.90;;;;;;;18.99;nan;101367.50;5063445;28;20185;-67
2021/09/18 07:44:38;;;;;;;5.40;4.90;;;;;;;19.04;nan;101372.75;5075269;28;20169;-67
2021/09/18 07:47:04;;;;;;;5.10;4.70;;;;;;;18.76;nan;101370.47;5071099;28;20502;-67
2021/09/18 07:49:29;;;;;;;4.50;4.20;;;;;;;19.15;nan;101373.44;5067800;28;20186;-67
2021/09/18 07:51:55;;;;;;;4.43;4.03;;;;;;;19.07;nan;101370.03;5076669;28;20287;-65
2021/09/18 07:54:21;;;;;;;7.50;4.50;;;;;;;19.18;nan;101365.44;5059074;28;20165;-66
2021/09/18 07:56:46;;;;;;;3.97;3.63;;;;;;;18.87;nan;101362.38;5067671;28;20520;-67
2021/09/18 07:59:12;;;;;;;4.37;3.97;;;;;;;19.08;nan;101365.63;5070551;28;20622;-67
2021/09/18 08:01:37;;;;;;;4.40;4.10;;;;;;;19.65;nan;101373.47;5075277;28;20196;-67
2021/09/18 08:04:03;;;;;;;5.33;4.30;;;;;;;20.00;nan;101369.31;5064147;28;20182;-66
2021/09/18 08:06:31;;;;;;;5.07;4.50;;;;;;;19.81;nan;101371.47;5075704;28;20194;-67
2021/09/18 08:08:57;;;;;;;4.90;4.50;;;;;;;20.27;nan;101376.72;5069727;28;20507;-68
2021/09/18 08:11:22;;;;;;;4.50;3.87;;;;;;;20.59;nan;101368.09;5068376;28;20577;-71
2021/09/18 08:13:49;;;;;;;6.33;3.90;;;;;;;21.26;nan;101369.25;5076139;28;20542;-71
2021/09/18 08:16:15;;;;;;;3.83;3.50;;;;;;;21.23;nan;101386.13;5064339;28;20173;-70
2021/09/18 08:18:40;;;;;;;4.07;3.70;;;;;;;21.00;nan;101381.38;5072472;28;20764;-71
2021/09/18 08:21:05;;;;;;;4.80;3.80;;;;;;;20.66;nan;101382.97;5070896;28;20192;-71
2021/09/18 08:23:31;;;;;;;3.50;3.20;;;;;;;20.06;nan;101384.22;5073271;28;20199;-72
2021/09/18 08:25:57;;;;;;;3.40;3.10;;;;;;;19.57;nan;101393.03;5063133;28;20268;-72
2021/09/18 08:28:22;;;;;;;4.10;3.30;;;;;;;20.55;nan;101389.41;5060637;28;20212;-73
2021/09/18 08:30:47;;;;;;;3.60;3.30;;;;;;;20.63;nan;101392.75;5060992;28;20165;-73
2021/09/18 08:33:12;;;;;;;3.03;2.83;;;;;;;18.98;nan;101397.50;5060470;28;20173;-72
2021/09/18 08:35:38;;;;;;;3.50;3.20;;;;;;;20.15;nan;101394.63;5060433;28;20291;-71
2021/09/18 08:38:03;;;;;;;3.23;2.93;;;;;;;20.19;nan;101393.66;5060292;28;20209;-71
2021/09/18 08:40:34;;;;;;;3.60;2.83;;;;;;;21.06;nan;101390.94;5060053;28;20177;-66
2021/09/18 08:42:59;;;;;;;3.43;3.13;;;;;;;21.59;nan;101391.41;5045818;28;20189;-67
2021/09/18 08:45:24;;;;;;;4.17;2.90;;;;;;;21.69;nan;101387.63;5040150;28;20417;-69
2021/09/18 08:47:50;;;;;;;3.00;2.77;;;;;;;20.94;nan;101402.72;5040183;28;20174;-68
2021/09/18 08:50:19;;;;;;;3.33;2.80;;;;;;;20.81;nan;101403.00;5039286;28;20249;-69
2021/09/18 08:52:45;;;;;;;3.07;2.77;;;;;;;20.87;nan;101394.03;5044801;28;20617;-68
2021/09/18 08:55:10;;;;;;;6.53;3.00;;;;;;;20.57;nan;101411.44;5059613;28;20463;-68
2021/09/18 08:57:36;;;;;;;2.90;2.70;;;;;;;19.81;nan;101413.78;5059969;28;20166;-70
2021/09/18 09:00:01;;;;;;;3.50;2.93;;;;;;;20.48;nan;101408.06;5040619;28;20186;-69
2021/09/18 09:02:28;;;;;;;4.30;3.50;;;;;;;20.56;nan;101407.06;5039759;28;20208;-66
2021/09/18 09:05:07;;;;;;;3.30;3.00;;;;;;;20.21;nan;101403.34;5039629;28;20170;-66
2021/09/18 09:07:33;;;;;;;2.77;2.57;;;;;;;19.58;nan;101418.56;5039640;28;20428;-66
2021/09/18 09:10:02;;;;;;;2.90;2.70;;;;;;;19.10;nan;101411.41;5019184;28;20418;-67
2021/09/18 09:12:35;;;;;;;3.00;2.70;;;;;;;18.76;nan;101415.38;5019660;28;20203;-67
2021/09/18 09:15:04;;;;;;;3.27;2.97;;;;;;;19.18;nan;101415.66;5019576;28;20410;-67
2021/09/18 09:17:34;;;;;;;3.07;2.83;;;;;;;18.66;nan;101408.50;5019823;28;20429;-68
2021/09/18 09:19:59;;;;;;;3.97;2.77;;;;;;;19.78;nan;101405.88;5020512;28;20447;-68
2021/09/18 09:22:43;;;;;;;2.80;2.60;;;;;;;17.82;nan;101416.44;5021268;28;20468;-69
2021/09/18 09:25:35;;;;;;;3.03;2.63;;;;;;;19.41;nan;101405.66;5020316;28;20163;-67
2021/09/18 09:28:22;;;;;;;3.40;2.80;;;;;;;18.05;nan;101418.88;5055537;28;20466;-68
2021/09/18 09:30:48;;;;;;;3.47;2.80;;;;;;;18.98;nan;101421.28;5048539;28;20498;-68
2021/09/18 09:33:14;;;;;;;3.20;2.90;;;;;;;19.21;nan;101422.69;5049912;28;20518;-67
2021/09/18 09:35:41;;;;;;;4.03;3.00;;;;;;;19.43;nan;101422.34;5051790;28;20475;-67
2021/09/18 09:38:07;;;;;;;3.00;2.70;;;;;;;18.81;nan;101432.03;5050400;28;20550;-68
2021/09/18 09:40:44;;;;;;;2.60;2.40;;;;;;;19.48;nan;101436.38;5044304;28;20424;-67
2021/09/18 09:43:12;;;;;;;2.53;2.33;;;;;;;19.44;nan;101438.19;5043638;28;20185;-67
2021/09/18 09:45:41;;;;;;;2.60;2.40;;;;;;;19.05;nan;101435.28;5039824;28;20451;-68
2021/09/18 09:48:14;;;;;;;2.97;2.30;;;;;;;19.50;nan;101435.44;5035080;28;20739;-67
2021/09/18 09:50:42;;;;;;;3.17;2.80;;;;;;;18.65;nan;101439.28;5038412;28;20540;-67
2021/09/18 09:53:32;;;;;;;2.53;2.33;;;;;;;18.32;nan;101448.47;5041353;28;20437;-67
2021/09/18 09:55:58;;;;;;;2.83;2.63;;;;;;;18.95;nan;101444.22;5032680;28;20553;-68
2021/09/18 09:58:23;;;;;;;2.60;2.40;;;;;;;19.41;nan;101432.94;5040544;28;20539;-68
2021/09/18 10:00:51;;;;;;;2.50;2.30;;;;;;;19.97;nan;101438.22;5074534;28;20288;-68
2021/09/18 10:03:22;;;;;;;2.57;2.37;;;;;;;20.49;nan;101436.31;5062143;28;20816;-70
2021/09/18 10:05:47;;;;;;;2.87;2.67;;;;;;;21.12;nan;101431.44;5069610;28;20427;-70
2021/09/18 10:08:13;;;;;;;2.30;2.10;;;;;;;19.19;nan;101437.72;5069858;28;20458;-71
2021/09/18 10:10:40;;;;;;;2.80;2.60;;;;;;;20.97;nan;101432.69;5062191;28;20248;-71
2021/09/18 10:13:06;;;;;;;2.53;2.20;;;;;;;20.59;nan;101436.97;5074906;28;20453;-72
2021/09/18 10:15:32;;;;;;;2.90;2.50;;;;;;;20.59;nan;101436.97;5063993;28;20753;-72
2021/09/18 10:18:00;;;;;;;2.90;2.50;;;;;;;19.65;nan;101434.31;5067682;28;20491;-71
2021/09/18 10:25:39;;;;;;;2.67;2.47;;;;;;;17.43;nan;101450.19;5070748;28;20670;-72
2021/09/18 10:28:10;;;;;;;2.70;2.50;;;;;;;18.36;nan;101442.31;5068482;28;20440;-72
2021/09/18 10:30:43;;;;;;;2.50;2.30;;;;;;;18.64;nan;101444.59;5062952;28;20461;-75
2021/09/18 10:33:29;;;;;;;2.70;2.50;;;;;;;18.41;nan;101442.22;5063044;28;20425;-75
2021/09/18 10:35:56;;;;;;;3.73;3.10;;;;;;;19.39;nan;101432.13;5068600;28;20420;-73
2021/09/18 10:38:25;;;;;;;2.73;2.53;;;;;;;19.19;nan;101438.56;5059866;28;20424;-74
2021/09/18 10:41:02;;;;;;;2.80;2.30;;;;;;;18.60;nan;101432.31;5056753;28;20458;-73
2021/09/18 10:43:34;;;;;;;3.43;2.67;;;;;;;19.98;nan;101433.78;5072183;28;20510;-67
2021/09/18 10:46:00;;;;;;;4.83;2.97;;;;;;;19.00;nan;101439.75;5067470;28;20455;-68
2021/09/18 10:48:47;;;;;;;3.37;2.53;;;;;;;19.82;nan;101433.19;5064146;28;20424;-68
2021/09/18 10:51:39;;;;;;;3.67;2.80;;;;;;;19.15;nan;101434.22;5074072;28;20562;-68
2021/09/18 10:54:10;;;;;;;2.63;2.43;;;;;;;19.49;nan;101438.97;5067381;28;20423;-66
2021/09/18 10:56:58;;;;;;;4.50;3.20;;;;;;;19.25;nan;101436.72;5059491;28;20439;-69
2021/09/18 10:59:47;;;;;;;3.43;3.13;;;;;;;19.58;nan;101429.16;5056969;28;20454;-67
2021/09/18 11:02:30;;;;;;;4.97;3.27;;;;;;;20.62;nan;101444.88;5057603;28;20423;-67
2021/09/18 11:05:00;;;;;;;3.20;2.70;;;;;;;18.51;nan;101442.09;5056217;28;20813;-70
2021/09/18 11:07:40;;;;;;;3.00;2.70;;;;;;;18.40;nan;101451.03;5056342;28;20468;-68
2021/09/18 11:10:28;;;;;;;3.53;2.80;;;;;;;19.20;nan;101444.75;5056068;28;20419;-68
2021/09/18 11:13:09;;;;;;;3.33;2.90;;;;;;;18.43;nan;101457.16;5075057;28;20498;-66
2021/09/18 11:15:55;;;;;;;3.53;3.10;;;;;;;19.31;nan;101453.38;5054312;28;20420;-68
2021/09/18 11:18:29;;;;;;;5.80;3.20;;;;;;;18.57;nan;101461.41;5053766;28;20423;-68
2021/09/18 11:21:02;;;;;;;3.53;3.23;;;;;;;18.98;nan;101458.28;5052136;28;20931;-67
2021/09/18 11:23:44;;;;;;;5.40;4.90;;;;;;;19.11;nan;101456.31;5075056;28;20831;-68
2021/09/18 11:26:32;;;;;;;3.93;3.50;;;;;;;18.92;nan;101466.28;5072587;28;20431;-67
2021/09/18 11:29:19;;;;;;;3.80;3.47;;;;;;;18.40;nan;101466.88;5064342;28;20416;-67
2021/09/18 11:32:05;;;;;;;4.20;3.73;;;;;;;17.72;nan;101471.00;5056585;28;20469;-67
2021/09/18 11:34:34;;;;;;;3.93;3.53;;;;;;;18.22;nan;101467.97;5068643;28;20423;-66
2021/09/18 11:37:01;;;;;;;7.23;4.07;;;;;;;18.14;nan;101468.94;5064295;28;20467;-69
2021/09/18 11:39:53;;;;;;;4.10;3.33;;;;;;;18.73;nan;101464.75;5075702;28;20450;-69
2021/09/18 11:42:23;;;;;;;4.17;3.77;;;;;;;19.28;nan;101457.81;5070551;28;20521;-67
2021/09/18 11:44:51;;;;;;;3.93;3.57;;;;;;;19.32;nan;101470.09;5058114;28;20475;-66